Time;durP1;ratioP1;P1;durP2;ratioP2;P2;SDS_P1;SDS_P2;PMS_P1;PMS_P2;Temp;Humidity;BMP_temperature;BMP_pressure;BME280_temperature;BME280_humidity;BME280_pressure;Samples;Min_cycle;Max_cycle;Signal;HPM_P1;HPM_P2
2021/03/05 00:00:27;;;;;;;14.02;11.65;;;7.90;99.90;;;;;;5016664;28;20052;-69
2021/03/05 00:02:53;;;;;;;14.65;13.10;;;7.70;99.90;;;;;;5017466;28;20022;-69
2021/03/05 00:05:19;;;;;;;14.73;13.23;;;7.50;99.90;;;;;;5015996;28;20026;-69
2021/03/05 00:07:45;;;;;;;15.38;13.77;;;7.50;99.90;;;;;;5015953;28;20030;-67
2021/03/05 00:10:15;;;;;;;16.45;14.60;;;7.50;99.90;;;;;;5016120;28;20021;-68
2021/03/05 00:12:41;;;;;;;16.38;14.75;;;7.30;99.90;;;;;;4999262;28;20022;-68
2021/03/05 00:15:08;;;;;;;19.00;16.30;;;7.20;99.90;;;;;;5017112;28;20160;-68
2021/03/05 00:17:34;;;;;;;16.40;14.70;;;7.20;99.90;;;;;;5016098;28;20041;-69
2021/03/05 00:20:01;;;;;;;13.88;12.48;;;7.20;99.90;;;;;;5016110;28;20028;-68
2021/03/05 00:22:26;;;;;;;12.48;11.30;;;7.00;99.90;;;;;;5016816;28;20025;-69
2021/03/05 00:24:52;;;;;;;14.38;12.98;;;6.80;99.90;;;;;;5015419;28;20026;-68
2021/03/05 00:27:18;;;;;;;15.73;14.13;;;6.90;99.90;;;;;;5015174;28;20045;-68
2021/03/05 00:29:43;;;;;;;15.30;12.90;;;6.80;99.90;;;;;;5015312;28;20033;-69
2021/03/05 00:32:09;;;;;;;18.63;16.38;;;6.70;99.90;;;;;;5015117;28;20026;-69
2021/03/05 00:34:35;;;;;;;18.95;16.58;;;6.60;99.90;;;;;;5015091;28;20080;-70
2021/03/05 00:37:01;;;;;;;21.90;19.02;;;6.50;99.90;;;;;;5013623;28;20389;-69
2021/03/05 00:39:27;;;;;;;21.67;17.92;;;6.30;99.90;;;;;;5015000;28;20025;-68
2021/03/05 00:41:52;;;;;;;21.45;17.55;;;6.30;99.90;;;;;;5015297;28;20025;-68
2021/03/05 00:44:18;;;;;;;25.42;18.77;;;6.20;99.90;;;;;;5015624;28;20387;-68
2021/03/05 00:46:43;;;;;;;24.45;17.75;;;6.10;99.90;;;;;;5014794;28;20484;-68
2021/03/05 00:49:09;;;;;;;21.70;17.40;;;6.00;99.90;;;;;;5014712;28;20026;-68
2021/03/05 00:51:34;;;;;;;28.58;22.05;;;6.00;99.90;;;;;;5014900;28;20108;-69
2021/03/05 00:54:00;;;;;;;28.23;21.33;;;6.00;99.90;;;;;;5014314;28;20030;-68
2021/03/05 00:56:25;;;;;;;24.77;20.30;;;5.90;99.90;;;;;;5014549;28;20026;-68
2021/03/05 00:58:51;;;;;;;27.13;19.30;;;5.80;99.90;;;;;;5013162;28;20085;-68
2021/03/05 01:01:17;;;;;;;27.05;21.33;;;5.70;99.90;;;;;;5016082;28;20022;-69
2021/03/05 01:03:42;;;;;;;25.40;19.80;;;5.60;99.90;;;;;;5018018;28;20050;-68
2021/03/05 01:06:08;;;;;;;30.23;23.05;;;5.50;99.90;;;;;;5017408;28;20034;-70
2021/03/05 01:08:33;;;;;;;30.83;22.95;;;5.50;99.90;;;;;;5017835;28;20097;-70
2021/03/05 01:10:59;;;;;;;28.98;20.85;;;5.50;99.90;;;;;;5019116;28;20021;-68
2021/03/05 01:13:24;;;;;;;28.45;21.70;;;5.50;99.90;;;;;;5015624;28;20088;-69
2021/03/05 01:15:51;;;;;;;29.48;22.20;;;5.30;99.90;;;;;;5014215;28;20064;-68
2021/03/05 01:18:16;;;;;;;32.88;22.95;;;5.40;99.90;;;;;;5014227;28;20478;-68
2021/03/05 01:20:43;;;;;;;30.60;22.27;;;5.30;99.90;;;;;;5014359;28;20025;-68
2021/03/05 01:23:08;;;;;;;34.22;25.20;;;5.40;99.90;;;;;;5013992;28;20117;-69
2021/03/05 01:25:34;;;;;;;26.67;20.27;;;5.30;99.90;;;;;;5013746;28;20037;-68
2021/03/05 01:28:01;;;;;;;30.10;22.00;;;5.20;99.90;;;;;;5014106;28;20390;-68
2021/03/05 01:30:27;;;;;;;31.48;23.08;;;5.10;99.90;;;;;;5014316;28;20057;-68
2021/03/05 01:32:53;;;;;;;31.90;23.30;;;5.20;99.90;;;;;;5012723;28;20097;-68
2021/03/05 01:35:22;;;;;;;29.25;20.33;;;5.20;99.90;;;;;;5013858;28;20343;-68
2021/03/05 01:37:48;;;;;;;29.77;20.92;;;5.20;99.90;;;;;;5012175;28;20055;-68
2021/03/05 01:40:19;;;;;;;33.78;22.50;;;5.00;99.90;;;;;;5014030;28;20026;-68
2021/03/05 01:42:44;;;;;;;33.55;22.05;;;5.00;99.90;;;;;;5013816;28;20366;-69
2021/03/05 01:45:17;;;;;;;33.00;23.02;;;5.00;99.90;;;;;;5014023;28;20030;-69
2021/03/05 01:47:44;;;;;;;36.13;25.13;;;4.90;99.90;;;;;;5013545;28;20026;-69
2021/03/05 01:50:17;;;;;;;34.60;23.25;;;5.00;99.90;;;;;;5013569;28;20026;-68
2021/03/05 01:52:55;;;;;;;32.25;21.63;;;5.00;99.90;;;;;;5013592;28;20028;-68
2021/03/05 01:55:21;;;;;;;29.67;20.40;;;4.90;99.90;;;;;;5013673;28;20443;-68
2021/03/05 01:57:46;;;;;;;27.42;18.00;;;4.80;99.90;;;;;;5012204;28;20054;-69
2021/03/05 02:00:14;;;;;;;37.03;22.08;;;4.70;99.90;;;;;;5013254;28;20037;-69
2021/03/05 02:02:39;;;;;;;32.80;21.30;;;4.80;99.90;;;;;;4975365;28;20040;-69
2021/03/05 02:05:06;;;;;;;34.20;23.85;;;4.80;99.90;;;;;;5021500;28;20104;-69
2021/03/05 02:07:32;;;;;;;38.13;24.83;;;4.80;99.90;;;;;;5013282;28;20053;-69
2021/03/05 02:09:57;;;;;;;37.90;23.20;;;4.70;99.90;;;;;;5013227;28;20080;-68
2021/03/05 02:12:23;;;;;;;40.78;23.98;;;4.80;99.90;;;;;;5012554;28;20030;-69
2021/03/05 02:14:49;;;;;;;33.20;20.60;;;4.70;99.90;;;;;;5013657;28;20026;-69
2021/03/05 02:17:25;;;;;;;39.30;24.42;;;4.60;99.90;;;;;;5013781;28;20029;-68
2021/03/05 02:20:15;;;;;;;42.63;24.90;;;4.60;99.90;;;;;;5013085;28;20621;-68
2021/03/05 02:23:00;;;;;;;34.67;22.80;;;4.60;99.90;;;;;;5011682;28;20030;-69
2021/03/05 02:25:54;;;;;;;38.53;23.42;;;4.60;99.90;;;;;;5012722;28;20474;-68
2021/03/05 02:28:57;;;;;;;34.17;21.02;;;4.70;99.90;;;;;;5018074;28;20061;-69
2021/03/05 02:31:47;;;;;;;35.28;21.98;;;4.60;99.90;;;;;;5024530;28;20085;-69
2021/03/05 02:34:28;;;;;;;39.75;23.55;;;4.60;99.90;;;;;;5018241;28;20132;-69
2021/03/05 02:37:01;;;;;;;33.65;21.42;;;4.50;99.90;;;;;;5015264;28;20104;-68
2021/03/05 02:39:37;;;;;;;36.03;22.83;;;4.60;99.90;;;;;;5019295;28;20022;-67
2021/03/05 02:42:08;;;;;;;39.30;22.50;;;4.60;99.90;;;;;;5012896;28;20088;-69
2021/03/05 02:44:38;;;;;;;;;;;4.50;99.90;;;;;;5013167;28;20474;-67
2021/03/05 02:47:05;;;;;;;39.13;19.05;;;4.60;99.90;;;;;;5012835;28;19905;-68
2021/03/05 02:49:35;;;;;;;33.22;20.48;;;4.50;99.90;;;;;;5012602;28;20026;-68
2021/03/05 02:52:16;;;;;;;30.85;20.65;;;4.60;99.90;;;;;;5013312;28;20391;-69
2021/03/05 02:54:43;;;;;;;34.25;21.00;;;4.50;99.90;;;;;;5015051;28;20033;-69
2021/03/05 02:57:14;;;;;;;28.05;18.60;;;4.60;99.90;;;;;;5021984;28;20469;-69
2021/03/05 02:59:41;;;;;;;30.05;19.50;;;4.50;99.90;;;;;;5023957;28;20369;-68
2021/03/05 03:02:08;;;;;;;30.23;19.10;;;4.50;99.90;;;;;;5022221;28;20022;-68
2021/03/05 03:04:35;;;;;;;33.15;19.73;;;4.50;99.90;;;;;;5015596;28;20097;-68
2021/03/05 03:07:02;;;;;;;37.65;22.17;;;4.50;99.90;;;;;;5012468;28;20025;-68
2021/03/05 03:09:29;;;;;;;30.73;20.90;;;4.40;99.90;;;;;;5012652;28;20405;-68
2021/03/05 03:11:54;;;;;;;29.55;19.58;;;4.50;99.90;;;;;;5012473;28;20029;-69
2021/03/05 03:14:20;;;;;;;33.25;21.73;;;4.50;99.90;;;;;;5012343;28;20034;-68
2021/03/05 03:16:47;;;;;;;29.73;20.52;;;4.50;99.90;;;;;;5012476;28;20030;-69
2021/03/05 03:19:15;;;;;;;29.63;19.30;;;4.60;99.90;;;;;;5011331;28;20077;-69
2021/03/05 03:21:41;;;;;;;27.55;18.52;;;4.40;99.90;;;;;;5012358;28;20524;-68
2021/03/05 03:24:08;;;;;;;28.02;19.13;;;4.50;99.90;;;;;;5011627;28;20083;-68
2021/03/05 03:26:38;;;;;;;29.45;21.50;;;4.50;99.90;;;;;;5016595;28;20045;-69
2021/03/05 03:29:09;;;;;;;30.63;19.35;;;4.50;99.90;;;;;;5016247;28;20037;-68
2021/03/05 03:31:38;;;;;;;28.48;18.40;;;4.40;99.90;;;;;;5016565;28;20041;-67
2021/03/05 03:34:05;;;;;;;31.45;19.98;;;4.50;99.90;;;;;;5016767;28;20037;-69
2021/03/05 03:36:35;;;;;;;28.55;19.63;;;4.50;99.90;;;;;;5014664;28;20490;-69
2021/03/05 03:39:01;;;;;;;27.35;18.80;;;4.50;99.90;;;;;;5016212;28;20030;-69
2021/03/05 03:41:27;;;;;;;28.88;20.58;;;4.40;99.90;;;;;;5014987;28;20026;-70
2021/03/05 03:43:53;;;;;;;26.55;17.70;;;4.40;99.90;;;;;;5016119;28;20096;-67
2021/03/05 03:46:18;;;;;;;24.27;18.15;;;4.40;99.90;;;;;;5015901;28;20108;-68
2021/03/05 03:48:51;;;;;;;26.23;19.30;;;4.40;99.90;;;;;;5015931;28;20096;-68
2021/03/05 03:51:22;;;;;;;27.80;18.35;;;4.40;99.90;;;;;;5015790;28;20025;-68
2021/03/05 03:53:50;;;;;;;29.08;19.33;;;4.40;99.90;;;;;;5015824;28;20026;-68
2021/03/05 03:56:19;;;;;;;26.35;18.52;;;4.50;99.90;;;;;;5015689;28;20050;-69
2021/03/05 03:58:48;;;;;;;25.23;20.00;;;4.40;99.90;;;;;;5016197;28;20482;-68
2021/03/05 04:01:15;;;;;;;23.73;18.05;;;4.40;99.90;;;;;;5015789;28;20022;-68
2021/03/05 04:03:47;;;;;;;25.85;18.80;;;4.40;99.90;;;;;;5015462;28;20333;-69
2021/03/05 04:06:15;;;;;;;25.50;20.17;;;4.40;99.90;;;;;;5015708;28;20084;-68
2021/03/05 04:08:42;;;;;;;22.00;17.02;;;4.40;99.90;;;;;;5015580;28;20029;-68
2021/03/05 04:11:09;;;;;;;25.40;19.38;;;4.40;99.90;;;;;;5015432;28;20394;-68
2021/03/05 04:13:38;;;;;;;20.35;16.55;;;4.40;99.90;;;;;;5015374;28;20018;-69
2021/03/05 04:16:04;;;;;;;20.33;17.20;;;4.40;99.90;;;;;;5015138;28;20105;-68
2021/03/05 04:18:32;;;;;;;21.52;17.58;;;4.30;99.90;;;;;;4997635;28;20021;-69
2021/03/05 04:21:01;;;;;;;19.33;15.70;;;4.30;99.90;;;;;;5015273;28;20563;-70
2021/03/05 04:23:27;;;;;;;19.23;15.23;;;4.30;99.90;;;;;;5015282;28;20026;-69
2021/03/05 04:25:52;;;;;;;20.13;16.10;;;4.30;99.90;;;;;;5015502;28;20390;-68
2021/03/05 04:28:18;;;;;;;17.00;14.88;;;4.30;1.00;;;;;;5015224;28;20026;-68
2021/03/05 04:30:43;;;;;;;18.77;15.05;;;4.30;99.90;;;;;;5016251;28;20026;-68
2021/03/05 04:33:09;;;;;;;16.50;14.32;;;4.20;99.90;;;;;;5019453;28;20029;-67
2021/03/05 04:35:35;;;;;;;16.75;13.88;;;4.20;99.90;;;;;;5019485;28;20022;-68
2021/03/05 04:38:00;;;;;;;17.70;14.60;;;4.10;99.90;;;;;;5015591;28;20105;-68
2021/03/05 04:40:26;;;;;;;17.00;15.07;;;4.20;1.00;;;;;;5015079;28;20482;-68
2021/03/05 04:42:51;;;;;;;16.80;14.85;;;4.20;1.00;;;;;;5014797;28;20053;-68
2021/03/05 04:45:17;;;;;;;18.40;14.43;;;4.20;1.00;;;;;;5014876;28;20034;-69
2021/03/05 04:47:43;;;;;;;19.90;15.77;;;4.20;1.00;;;;;;5014955;28;20026;-69
2021/03/05 04:50:09;;;;;;;18.77;13.68;;;4.20;1.00;;;;;;5015102;28;20425;-68
2021/03/05 04:52:35;;;;;;;17.88;14.75;;;4.20;99.90;;;;;;5014606;28;20083;-68
2021/03/05 04:55:00;;;;;;;18.30;15.48;;;4.10;1.00;;;;;;5014711;28;20037;-68
2021/03/05 04:57:26;;;;;;;17.08;14.70;;;4.10;1.00;;;;;;5014607;28;20033;-69
2021/03/05 04:59:51;;;;;;;19.83;15.30;;;4.10;1.00;;;;;;5014394;28;20486;-68
2021/03/05 05:02:17;;;;;;;17.88;14.93;;;4.10;1.00;;;;;;5014633;28;20033;-69
2021/03/05 05:04:42;;;;;;;16.45;14.18;;;4.20;99.90;;;;;;5014354;28;20048;-69
2021/03/05 05:07:08;;;;;;;17.73;14.73;;;4.20;1.00;;;;;;5014311;28;20066;-69
2021/03/05 05:09:33;;;;;;;20.60;15.70;;;4.20;99.90;;;;;;5014191;28;20034;-68
2021/03/05 05:11:59;;;;;;;17.20;14.70;;;4.10;1.00;;;;;;5014272;28;20020;-68
2021/03/05 05:14:25;;;;;;;15.68;13.55;;;4.10;1.00;;;;;;5014371;28;20025;-68
2021/03/05 05:16:50;;;;;;;18.10;14.23;;;4.20;1.00;;;;;;5014072;28;20393;-68
2021/03/05 05:19:16;;;;;;;18.08;14.90;;;4.10;99.90;;;;;;5014302;28;20502;-68
2021/03/05 05:21:41;;;;;;;18.30;14.43;;;4.20;99.90;;;;;;5014315;28;20469;-69
2021/03/05 05:24:07;;;;;;;21.48;15.43;;;4.10;99.90;;;;;;5013995;28;20026;-69
2021/03/05 05:26:33;;;;;;;18.38;14.48;;;4.10;99.90;;;;;;5012558;28;20041;-69
2021/03/05 05:28:59;;;;;;;19.48;14.98;;;4.10;1.00;;;;;;5013860;28;20030;-69
2021/03/05 05:31:24;;;;;;;16.15;12.27;;;4.10;99.90;;;;;;5014058;28;20026;-68
2021/03/05 05:33:50;;;;;;;15.65;13.60;;;4.20;99.90;;;;;;5013915;28;20390;-69
2021/03/05 05:36:15;;;;;;;16.10;13.82;;;4.20;99.90;;;;;;5012409;28;20030;-68
2021/03/05 05:38:41;;;;;;;21.00;12.90;;;4.20;99.90;;;;;;5013904;28;20034;-68
2021/03/05 05:41:06;;;;;;;16.02;13.05;;;4.20;99.90;;;;;;5013772;28;20109;-69
2021/03/05 05:43:32;;;;;;;14.80;12.73;;;4.20;99.90;;;;;;5014658;28;20176;-69
2021/03/05 05:46:05;;;;;;;18.65;14.38;;;4.20;99.90;;;;;;5013963;28;20029;-69
2021/03/05 05:48:35;;;;;;;15.20;12.60;;;4.30;99.90;;;;;;5012944;28;20026;-69
2021/03/05 05:51:01;;;;;;;16.38;13.43;;;4.30;99.90;;;;;;5012346;28;20025;-68
2021/03/05 05:53:34;;;;;;;18.88;13.23;;;4.30;99.90;;;;;;5013742;28;20045;-68
2021/03/05 05:56:00;;;;;;;15.95;12.65;;;4.30;99.90;;;;;;5016551;28;20116;-69
2021/03/05 05:58:27;;;;;;;17.42;11.88;;;4.40;99.90;;;;;;5018333;28;20028;-69
2021/03/05 06:00:56;;;;;;;16.33;12.77;;;4.50;99.90;;;;;;5018628;28;20546;-69
2021/03/05 06:03:27;;;;;;;14.43;11.05;;;4.50;99.90;;;;;;5018823;28;20390;-69
2021/03/05 06:05:53;;;;;;;19.00;14.63;;;4.30;99.90;;;;;;5017332;28;20054;-68
2021/03/05 06:08:19;;;;;;;17.13;12.80;;;4.30;99.90;;;;;;5014534;28;20037;-69
2021/03/05 06:10:45;;;;;;;16.90;13.55;;;4.20;99.90;;;;;;5013951;28;20030;-68
2021/03/05 06:13:12;;;;;;;18.58;14.30;;;4.30;99.90;;;;;;5013676;28;20433;-69
2021/03/05 06:15:38;;;;;;;16.48;12.70;;;4.20;99.90;;;;;;5013220;28;20505;-68
2021/03/05 06:18:04;;;;;;;18.45;13.45;;;4.10;99.90;;;;;;5013550;28;20121;-68
2021/03/05 06:20:45;;;;;;;15.60;12.30;;;4.40;99.90;;;;;;5013222;28;20061;-68
2021/03/05 06:23:13;;;;;;;17.50;13.77;;;4.60;99.90;;;;;;5013603;28;20022;-68
2021/03/05 06:25:38;;;;;;;15.23;11.95;;;4.70;99.90;;;;;;5013960;28;20056;-68
2021/03/05 06:28:17;;;;;;;15.95;12.27;;;4.60;99.90;;;;;;5013562;28;20113;-68
2021/03/05 06:30:43;;;;;;;15.80;13.15;;;4.50;99.90;;;;;;5013604;28;20034;-68
2021/03/05 06:33:23;;;;;;;14.60;11.50;;;4.50;99.90;;;;;;5013516;28;20026;-68
2021/03/05 06:35:49;;;;;;;15.95;12.25;;;4.60;99.90;;;;;;5014376;28;20045;-68
2021/03/05 06:38:41;;;;;;;14.13;11.40;;;4.70;99.90;;;;;;5013885;28;20033;-70
2021/03/05 06:41:31;;;;;;;18.92;13.57;;;4.40;99.90;;;;;;5013075;28;20355;-68
2021/03/05 06:44:03;;;;;;;15.80;12.13;;;4.30;99.90;;;;;;5015984;28;20390;-69
2021/03/05 06:46:37;;;;;;;16.25;12.18;;;4.20;99.90;;;;;;5013934;28;20030;-69
2021/03/05 06:49:07;;;;;;;17.95;12.90;;;4.20;99.90;;;;;;4995565;28;20034;-69
2021/03/05 06:51:33;;;;;;;16.85;13.00;;;4.10;99.90;;;;;;5013240;28;20068;-68
2021/03/05 06:54:16;;;;;;;16.67;12.55;;;4.00;99.90;;;;;;5013028;28;20041;-69
2021/03/05 06:56:49;;;;;;;21.27;14.30;;;4.00;99.90;;;;;;5012990;28;20033;-69
2021/03/05 06:59:17;;;;;;;17.90;13.63;;;4.00;99.90;;;;;;5012876;28;20486;-69
2021/03/05 07:01:52;;;;;;;18.58;12.30;;;4.00;99.90;;;;;;5013446;28;20030;-70
2021/03/05 07:04:23;;;;;;;14.75;11.27;;;4.00;99.90;;;;;;5012671;28;20105;-71
2021/03/05 07:06:57;;;;;;;;;;;3.90;99.90;;;;;;5011978;28;20029;-68
2021/03/05 07:09:29;;;;;;;19.40;12.50;;;3.90;99.90;;;;;;5013707;28;19912;-69
2021/03/05 07:11:56;;;;;;;18.42;13.35;;;3.90;99.90;;;;;;5013087;28;20037;-69
2021/03/05 07:14:32;;;;;;;18.73;13.57;;;3.90;99.90;;;;;;5012873;28;20053;-68
2021/03/05 07:16:59;;;;;;;17.88;14.13;;;4.00;99.90;;;;;;5013204;28;20040;-68
2021/03/05 07:19:28;;;;;;;19.85;12.93;;;4.00;99.90;;;;;;5012658;28;20022;-68
2021/03/05 07:21:54;;;;;;;20.30;14.15;;;4.10;99.90;;;;;;5013437;28;20382;-69
2021/03/05 07:24:22;;;;;;;19.13;13.05;;;4.00;99.90;;;;;;5012982;28;20501;-69
2021/03/05 07:27:02;;;;;;;18.42;13.38;;;4.10;99.90;;;;;;5011446;28;20042;-69
2021/03/05 07:29:45;;;;;;;20.90;13.93;;;4.10;99.90;;;;;;5012746;28;20340;-68
2021/03/05 07:32:16;;;;;;;18.23;13.27;;;4.10;99.90;;;;;;5012297;28;20021;-69
2021/03/05 07:34:59;;;;;;;18.45;13.98;;;4.10;99.90;;;;;;5011786;28;20454;-69
2021/03/05 07:37:41;;;;;;;19.08;13.50;;;4.10;99.90;;;;;;5012671;28;20511;-69
2021/03/05 07:40:12;;;;;;;17.58;11.45;;;4.10;99.90;;;;;;5012785;28;20026;-70
2021/03/05 07:42:38;;;;;;;17.27;13.63;;;4.20;99.90;;;;;;5012490;28;20497;-69
2021/03/05 07:45:06;;;;;;;17.63;12.73;;;4.10;99.90;;;;;;5010942;28;20223;-68
2021/03/05 07:47:33;;;;;;;18.55;13.82;;;4.10;99.90;;;;;;5011349;28;20493;-69
2021/03/05 07:50:00;;;;;;;21.80;14.65;;;4.10;99.90;;;;;;5012402;28;20038;-69
2021/03/05 07:52:26;;;;;;;18.83;12.88;;;4.10;99.90;;;;;;5011559;28;20049;-69
2021/03/05 07:54:52;;;;;;;21.38;13.88;;;4.10;99.90;;;;;;5012680;28;20080;-69
2021/03/05 07:57:23;;;;;;;18.45;13.05;;;4.10;99.90;;;;;;5012145;28;20030;-68
2021/03/05 07:59:51;;;;;;;22.25;13.13;;;4.20;99.90;;;;;;5012484;28;20022;-68
2021/03/05 08:02:21;;;;;;;19.90;14.43;;;4.30;99.90;;;;;;5012414;28;20050;-68
2021/03/05 08:04:55;;;;;;;19.55;13.23;;;4.20;99.90;;;;;;5012244;28;20026;-68
2021/03/05 08:07:26;;;;;;;21.38;13.35;;;4.30;99.90;;;;;;5015778;28;20033;-68
2021/03/05 08:09:52;;;;;;;18.77;13.18;;;4.40;99.90;;;;;;5012688;28;20080;-69
2021/03/05 08:15:08;;;;;;;17.52;13.27;;;4.30;99.90;;;;;;5018713;28;20033;-69
2021/03/05 08:17:41;;;;;;;20.98;13.77;;;4.30;99.90;;;;;;5015836;28;20071;-69
2021/03/05 08:20:30;;;;;;;18.58;12.27;;;4.30;99.90;;;;;;5018106;28;20525;-68
2021/03/05 08:22:58;;;;;;;21.05;11.77;;;4.30;99.90;;;;;;5018088;28;20374;-69
2021/03/05 08:25:33;;;;;;;17.55;13.07;;;4.30;99.90;;;;;;5015952;28;20490;-69
2021/03/05 08:28:02;;;;;;;17.65;12.45;;;4.40;99.90;;;;;;5016882;28;20042;-68
2021/03/05 08:30:34;;;;;;;18.77;13.00;;;4.50;99.90;;;;;;5015528;28;20030;-69
2021/03/05 08:33:03;;;;;;;15.57;11.10;;;4.40;99.90;;;;;;5016424;28;20080;-69
2021/03/05 08:35:29;;;;;;;18.88;11.07;;;4.40;99.90;;;;;;5017526;28;20109;-70
2021/03/05 08:37:58;;;;;;;16.38;12.00;;;4.40;99.90;;;;;;5017550;28;20106;-69
2021/03/05 08:40:37;;;;;;;16.65;10.85;;;4.30;99.90;;;;;;5017931;28;20025;-69
2021/03/05 08:43:09;;;;;;;17.30;12.27;;;4.40;99.90;;;;;;5017623;28;20359;-69
2021/03/05 08:45:39;;;;;;;16.65;11.85;;;4.40;99.90;;;;;;5017192;28;20029;-70
2021/03/05 08:48:05;;;;;;;14.25;11.35;;;4.30;99.90;;;;;;5023946;28;20048;-68
2021/03/05 08:50:36;;;;;;;16.38;12.05;;;4.40;99.90;;;;;;5024915;28;20038;-68
2021/03/05 08:53:11;;;;;;;19.05;12.13;;;4.40;99.90;;;;;;5015610;28;20038;-69
2021/03/05 08:55:39;;;;;;;19.52;14.48;;;4.30;99.90;;;;;;5019681;28;20052;-69
2021/03/05 08:58:04;;;;;;;21.48;13.30;;;4.30;99.90;;;;;;5022394;28;20089;-69
2021/03/05 09:00:32;;;;;;;17.65;11.80;;;4.40;99.90;;;;;;5018477;28;20033;-68
2021/03/05 09:03:07;;;;;;;18.42;12.30;;;4.30;99.90;;;;;;5019129;28;20580;-70
2021/03/05 09:05:35;;;;;;;16.65;12.57;;;4.40;99.90;;;;;;5016077;28;20120;-69
2021/03/05 09:08:01;;;;;;;16.65;11.73;;;4.40;99.90;;;;;;5019668;28;20109;-70
2021/03/05 09:10:41;;;;;;;19.17;11.57;;;4.30;99.90;;;;;;5023012;28;20026;-68
2021/03/05 09:13:07;;;;;;;13.27;10.63;;;4.30;99.90;;;;;;5023287;28;20037;-69
2021/03/05 09:15:56;;;;;;;17.38;10.18;;;4.40;99.90;;;;;;5022298;28;20022;-69
2021/03/05 09:18:24;;;;;;;17.45;10.57;;;4.40;99.90;;;;;;5021223;28;20082;-67
2021/03/05 09:21:01;;;;;;;14.90;10.00;;;4.40;99.90;;;;;;5022307;28;20445;-69
2021/03/05 09:23:44;;;;;;;19.77;10.35;;;4.60;99.90;;;;;;5019568;28;20018;-69
2021/03/05 09:26:14;;;;;;;14.93;10.55;;;4.70;99.90;;;;;;5018518;28;20030;-68
2021/03/05 09:28:43;;;;;;;15.75;9.95;;;4.60;99.90;;;;;;5017333;28;20049;-69
2021/03/05 09:31:10;;;;;;;17.30;11.10;;;4.70;99.90;;;;;;5016801;28;20026;-68
2021/03/05 09:33:40;;;;;;;13.57;10.00;;;5.10;99.90;;;;;;5017566;28;20053;-68
2021/03/05 09:36:12;;;;;;;13.73;10.27;;;5.20;99.90;;;;;;5016124;28;20394;-69
2021/03/05 09:38:42;;;;;;;13.25;10.38;;;5.10;99.90;;;;;;5019118;28;20034;-70
2021/03/05 09:41:25;;;;;;;14.68;10.02;;;5.50;99.90;;;;;;5017838;28;20397;-68
2021/03/05 09:43:59;;;;;;;16.52;9.70;;;5.50;99.90;;;;;;5017484;28;20030;-69
2021/03/05 09:46:27;;;;;;;11.98;9.73;;;5.20;99.90;;;;;;5017546;28;20033;-69
2021/03/05 09:48:54;;;;;;;13.82;9.43;;;5.40;99.90;;;;;;5017137;28;20409;-68
2021/03/05 09:51:20;;;;;;;16.38;11.40;;;5.40;99.90;;;;;;5016910;28;20025;-69
2021/03/05 09:53:52;;;;;;;14.98;10.50;;;5.30;99.90;;;;;;5016104;28;20621;-68
2021/03/05 09:56:18;;;;;;;13.98;9.73;;;5.50;99.90;;;;;;5016197;28;20033;-69
2021/03/05 09:58:57;;;;;;;12.95;9.93;;;5.90;99.90;;;;;;5016734;28;20022;-69
2021/03/05 10:01:24;;;;;;;13.88;10.10;;;6.10;99.90;;;;;;5016108;28;20022;-69
2021/03/05 10:03:55;;;;;;;16.77;10.32;;;5.60;99.90;;;;;;5013788;28;20026;-68
2021/03/05 10:06:21;;;;;;;13.15;10.70;;;5.20;99.90;;;;;;5013800;28;20034;-68
2021/03/05 10:08:47;;;;;;;14.57;10.48;;;5.50;99.90;;;;;;5015535;28;20391;-69
2021/03/05 10:11:13;;;;;;;14.10;10.65;;;5.40;99.90;;;;;;5014353;28;20018;-69
2021/03/05 10:13:39;;;;;;;15.68;10.32;;;5.30;99.90;;;;;;5014694;28;20071;-68
2021/03/05 10:16:16;;;;;;;18.60;11.05;;;5.50;99.90;;;;;;5015308;28;20089;-69
2021/03/05 10:18:43;;;;;;;14.82;10.20;;;5.30;99.90;;;;;;5014177;28;20120;-68
2021/03/05 10:21:14;;;;;;;14.77;11.20;;;5.50;99.90;;;;;;5015138;28;20524;-68
2021/03/05 10:23:42;;;;;;;13.48;9.80;;;5.30;99.90;;;;;;5014300;28;20113;-69
2021/03/05 10:26:16;;;;;;;13.93;9.73;;;5.20;99.90;;;;;;5015702;28;20029;-69
2021/03/05 10:28:43;;;;;;;15.65;10.48;;;5.60;99.90;;;;;;5015673;28;20052;-68
2021/03/05 10:31:08;;;;;;;13.98;9.52;;;5.80;99.90;;;;;;5015884;28;20068;-69
2021/03/05 10:33:41;;;;;;;12.77;9.65;;;6.20;99.90;;;;;;5021893;28;20026;-69
2021/03/05 10:36:08;;;;;;;11.75;9.07;;;5.90;99.90;;;;;;5018023;28;20545;-69
2021/03/05 10:38:35;;;;;;;10.80;8.50;;;5.90;99.90;;;;;;5015333;28;20029;-68
2021/03/05 10:41:02;;;;;;;13.27;10.35;;;6.20;99.90;;;;;;5015066;28;20072;-68
2021/03/05 10:43:28;;;;;;;13.15;9.60;;;6.30;99.90;;;;;;5015061;28;20028;-68
2021/03/05 10:45:54;;;;;;;16.20;10.45;;;6.30;99.90;;;;;;5014293;28;20397;-68
2021/03/05 10:48:19;;;;;;;15.90;10.27;;;5.70;99.90;;;;;;5014885;28;20041;-69
2021/03/05 10:50:45;;;;;;;14.80;10.80;;;5.70;99.90;;;;;;5015245;28;20029;-68
2021/03/05 10:53:10;;;;;;;13.65;9.40;;;5.50;99.90;;;;;;5015974;28;20029;-68
2021/03/05 10:55:36;;;;;;;15.07;9.52;;;5.70;99.90;;;;;;5016334;28;20080;-69
2021/03/05 10:58:02;;;;;;;16.00;10.25;;;5.50;99.90;;;;;;5016360;28;20116;-68
2021/03/05 11:00:29;;;;;;;16.77;10.20;;;5.90;99.90;;;;;;5015780;28;20030;-69
2021/03/05 11:02:54;;;;;;;13.60;9.55;;;6.00;99.90;;;;;;5015842;28;20029;-68
2021/03/05 11:05:20;;;;;;;12.75;9.10;;;6.20;99.90;;;;;;5014745;28;20099;-69
2021/03/05 11:07:46;;;;;;;13.35;9.32;;;6.30;99.90;;;;;;5015611;28;20030;-68
2021/03/05 11:10:12;;;;;;;13.57;10.10;;;6.10;99.90;;;;;;5015889;28;20176;-69
2021/03/05 11:12:38;;;;;;;17.00;10.60;;;6.20;99.90;;;;;;5014994;28;20033;-68
2021/03/05 11:15:04;;;;;;;13.40;9.98;;;6.10;99.90;;;;;;5015354;28;20097;-68
2021/03/05 11:17:30;;;;;;;14.15;10.38;;;6.00;99.90;;;;;;5015194;28;20286;-69
2021/03/05 11:19:59;;;;;;;14.88;9.75;;;6.00;99.90;;;;;;5014226;28;20021;-69
2021/03/05 11:22:25;;;;;;;17.48;10.48;;;5.90;99.90;;;;;;5015993;28;20152;-68
2021/03/05 11:24:50;;;;;;;16.95;12.30;;;6.20;99.90;;;;;;5015099;28;20049;-67
2021/03/05 11:27:16;;;;;;;12.57;9.77;;;6.20;99.90;;;;;;5015717;28;20116;-68
2021/03/05 11:29:42;;;;;;;13.23;9.93;;;5.80;99.90;;;;;;5015541;28;20112;-68
2021/03/05 11:32:08;;;;;;;18.23;10.43;;;5.80;99.90;;;;;;5015551;28;20061;-69
2021/03/05 11:34:35;;;;;;;11.27;10.00;;;5.70;99.90;;;;;;5014910;28;20030;-68
2021/03/05 11:37:00;;;;;;;13.73;10.73;;;5.70;99.90;;;;;;5015752;28;20030;-69
2021/03/05 11:39:26;;;;;;;15.80;11.35;;;5.70;99.90;;;;;;5014291;28;20081;-68
2021/03/05 11:41:54;;;;;;;19.88;10.00;;;5.90;99.90;;;;;;5015838;28;20069;-69
2021/03/05 11:44:19;;;;;;;15.48;11.02;;;6.10;99.90;;;;;;5016376;28;20117;-69
2021/03/05 11:46:45;;;;;;;12.73;10.15;;;6.30;70.70;;;;;;5018638;28;20375;-68
2021/03/05 11:49:11;;;;;;;13.32;9.98;;;6.00;99.90;;;;;;5021580;28;20482;-68
2021/03/05 11:51:36;;;;;;;13.20;10.45;;;6.00;99.90;;;;;;5018591;28;20345;-69
2021/03/05 11:54:02;;;;;;;11.23;9.90;;;5.70;99.90;;;;;;5019213;28;20132;-69
2021/03/05 11:56:27;;;;;;;16.63;11.05;;;5.60;99.90;;;;;;5018688;28;20034;-68
2021/03/05 11:58:53;;;;;;;21.77;10.20;;;5.50;99.90;;;;;;5019005;28;20493;-68
2021/03/05 12:01:19;;;;;;;15.00;10.55;;;5.50;99.90;;;;;;5019430;28;20037;-69
2021/03/05 12:03:44;;;;;;;17.25;11.75;;;5.40;99.90;;;;;;5018087;28;20029;-69
2021/03/05 12:06:10;;;;;;;14.35;12.00;;;5.60;99.90;;;;;;5018576;28;20030;-68
2021/03/05 12:08:35;;;;;;;14.77;10.18;;;5.50;99.90;;;;;;5019627;28;20022;-69
2021/03/05 12:11:01;;;;;;;15.65;10.45;;;5.50;99.90;;;;;;5019319;28;20470;-69
2021/03/05 12:13:27;;;;;;;14.57;10.18;;;6.00;99.30;;;;;;5017103;28;20045;-69
2021/03/05 12:15:52;;;;;;;13.10;9.70;;;6.20;90.50;;;;;;5020464;28;20032;-70
2021/03/05 12:18:18;;;;;;;15.00;10.68;;;6.30;72.20;;;;;;5022221;28;20385;-69
2021/03/05 12:20:44;;;;;;;12.88;10.52;;;5.80;91.30;;;;;;5023797;28;20374;-70
2021/03/05 12:23:09;;;;;;;13.75;10.35;;;5.70;99.90;;;;;;5019307;28;20022;-69
2021/03/05 12:25:35;;;;;;;16.77;11.98;;;5.70;99.90;;;;;;5019137;28;20053;-69
2021/03/05 12:28:01;;;;;;;13.15;11.13;;;5.70;99.90;;;;;;5019895;28;20034;-69
2021/03/05 12:30:27;;;;;;;13.88;9.80;;;5.70;99.90;;;;;;5017675;28;20076;-70
2021/03/05 12:32:54;;;;;;;15.43;10.75;;;5.80;99.90;;;;;;5016610;28;20025;-69
2021/03/05 12:35:21;;;;;;;16.23;10.88;;;5.70;99.90;;;;;;5016574;28;20025;-69
2021/03/05 12:37:47;;;;;;;15.10;11.23;;;5.60;99.90;;;;;;5016377;28;20072;-69
2021/03/05 12:40:13;;;;;;;15.07;10.55;;;5.70;99.90;;;;;;5016565;28;20034;-69
2021/03/05 12:42:41;;;;;;;12.60;9.27;;;6.10;70.10;;;;;;5016883;28;20018;-69
2021/03/05 12:45:08;;;;;;;13.55;9.77;;;6.20;29.40;;;;;;5016695;28;20022;-70
2021/03/05 12:47:34;;;;;;;12.32;10.15;;;6.50;22.50;;;;;;5016469;28;20106;-68